createdAt,value
2023-04-04T00:05:47.480Z,34.1
2023-04-04T00:11:53.163Z,34.1
2023-04-04T00:17:58.948Z,34.1
2023-04-04T00:24:04.621Z,34.1
2023-04-04T00:30:09.236Z,34.1
2023-04-04T00:36:15.203Z,34.1
2023-04-04T00:42:20.562Z,34
2023-04-04T00:48:26.099Z,34
2023-04-04T00:54:31.690Z,34
2023-04-04T01:00:36.703Z,34
2023-04-04T01:06:42.051Z,34
2023-04-04T01:12:46.830Z,34
2023-04-04T01:18:52.738Z,34
2023-04-04T01:24:57.705Z,34
2023-04-04T01:31:03.300Z,34
2023-04-04T01:37:08.834Z,33.9
2023-04-04T01:43:14.206Z,33.9
2023-04-04T01:49:20.405Z,33.8
2023-04-04T01:55:26.190Z,33.8
2023-04-04T02:01:31.771Z,33.8
2023-04-04T02:07:37.130Z,33.9
2023-04-04T02:13:42.696Z,33.8
2023-04-04T02:19:48.066Z,33.9
2023-04-04T02:25:54.252Z,33.7
2023-04-04T02:31:59.690Z,34
2023-04-04T02:38:04.569Z,33.8
2023-04-04T02:44:10.364Z,33.8
2023-04-04T02:50:16.117Z,33.8
2023-04-04T02:56:21.900Z,33.8
2023-04-04T03:02:27.169Z,33.8
2023-04-04T03:08:33.251Z,33.8
2023-04-04T03:14:39.049Z,33.7
2023-04-04T03:20:45.428Z,33.7
2023-04-04T03:26:50.988Z,33.7
2023-04-04T03:32:57.198Z,33.8
2023-04-04T03:39:02.554Z,33.7
2023-04-04T03:45:08.126Z,33.6
2023-04-04T03:51:14.106Z,33.7
2023-04-04T03:57:19.628Z,33.6
2023-04-04T04:03:25.680Z,33.5
2023-04-04T04:09:31.943Z,33.6
2023-04-04T04:15:37.514Z,33.6
2023-04-04T04:21:42.692Z,33.6
2023-04-04T04:27:48.663Z,33.5
2023-04-04T04:33:54.242Z,33.5
2023-04-04T04:39:59.598Z,33.4
2023-04-04T04:46:05.192Z,33.3
2023-04-04T04:52:11.156Z,33.1
2023-04-04T04:58:18.562Z,32.8
2023-04-04T05:04:24.359Z,32.4
2023-04-04T05:10:30.125Z,32.3
2023-04-04T05:16:36.311Z,32
2023-04-04T05:22:41.691Z,32
2023-04-04T05:28:47.048Z,31.9
2023-04-04T05:34:52.273Z,31.9
2023-04-04T05:40:57.785Z,31.9
2023-04-04T05:47:03.284Z,31.9
2023-04-04T05:53:08.928Z,31.9
2023-04-04T05:59:15.212Z,32
2023-04-04T06:05:20.770Z,32
2023-04-04T06:11:26.111Z,32
2023-04-04T06:17:31.887Z,32.1
2023-04-04T06:23:37.253Z,31.9
2023-04-04T06:29:42.450Z,32.1
2023-04-04T06:35:47.793Z,32.1
2023-04-04T06:41:52.906Z,32.2
2023-04-04T06:47:58.881Z,32.2
2023-04-04T06:54:05.057Z,32.3
2023-04-04T07:00:11.044Z,32.3
2023-04-04T07:06:16.825Z,32
2023-04-04T07:12:22.395Z,31.6
2023-04-04T07:18:27.764Z,31.8
2023-04-04T07:24:33.558Z,32.2
2023-04-04T07:30:39.871Z,32.1
2023-04-04T07:36:46.314Z,31.8
2023-04-04T07:42:52.085Z,31.9
2023-04-04T07:48:57.895Z,32
2023-04-04T07:55:03.685Z,31.6
2023-04-04T08:01:08.886Z,31.8
2023-04-04T08:07:14.378Z,31.7
2023-04-04T08:13:19.838Z,31.8
2023-04-04T08:19:25.205Z,31.8
2023-04-04T08:25:31.090Z,31.9
2023-04-04T08:31:36.896Z,31.8
2023-04-04T08:37:42.454Z,31.5
2023-04-04T08:43:47.854Z,31.6
2023-04-04T08:49:53.416Z,31.7
2023-04-04T08:55:58.585Z,31.7
2023-04-04T09:02:04.372Z,31.8
2023-04-04T09:08:09.703Z,31.7
2023-04-04T09:14:15.275Z,31.9
2023-04-04T09:20:21.266Z,31.8
2023-04-04T09:26:26.851Z,31.7
2023-04-04T09:32:32.447Z,31.9
2023-04-04T09:38:38.805Z,31.8
2023-04-04T09:44:44.777Z,31.2
2023-04-04T09:50:50.357Z,31.3
2023-04-04T09:56:55.857Z,31.7
2023-04-04T10:03:01.211Z,31.6
2023-04-04T10:09:06.646Z,31.7
2023-04-04T10:15:12.074Z,31.7
2023-04-04T10:21:18.789Z,31.7
2023-04-04T10:27:24.062Z,31.6
2023-04-04T10:33:29.550Z,31.5
2023-04-04T10:39:35.393Z,31.6
2023-04-04T10:45:41.234Z,31.6
2023-04-04T10:51:58.384Z,31.6
2023-04-04T10:58:04.130Z,31.6
2023-04-04T11:04:09.957Z,31.6
2023-04-04T11:10:15.281Z,31.8
2023-04-04T11:16:20.853Z,31.7
2023-04-04T11:22:26.421Z,31.5
2023-04-04T11:28:32.206Z,31.8
2023-04-04T11:34:38.404Z,31.6
2023-04-04T11:40:43.989Z,31.6
2023-04-04T11:46:51.065Z,31.3
2023-04-04T11:52:57.246Z,31.5
2023-04-04T11:59:14.020Z,31.4
2023-04-04T12:05:19.866Z,31.3
2023-04-04T12:11:25.410Z,31.3
2023-04-04T12:17:31.015Z,31.1
2023-04-04T12:23:36.542Z,31.3
2023-04-04T12:29:41.974Z,31.4
2023-04-04T12:35:47.295Z,31.2
2023-04-04T12:41:53.001Z,31.4
2023-04-04T12:47:58.484Z,31.3
2023-04-04T12:54:04.002Z,31.2
2023-04-04T13:00:09.926Z,31.2
2023-04-04T13:06:15.771Z,31.2
2023-04-04T13:12:21.121Z,31.1
2023-04-04T13:18:27.100Z,31.3
2023-04-04T13:24:32.822Z,31.4
2023-04-04T13:30:38.900Z,31.2
2023-04-04T13:36:45.270Z,31.2
2023-04-04T13:42:50.785Z,31.2
2023-04-04T13:48:56.745Z,31.3
2023-04-04T13:55:01.968Z,31.2
2023-04-04T14:01:07.521Z,31.1
2023-04-04T14:07:14.300Z,31.1
2023-04-04T14:13:20.058Z,31
2023-04-04T14:19:25.707Z,31
2023-04-04T14:25:30.850Z,31.1
2023-04-04T14:31:36.595Z,31
2023-04-04T14:37:42.354Z,31.1
2023-04-04T14:43:48.140Z,31.2
2023-04-04T14:49:54.921Z,31.4
2023-04-04T14:56:01.576Z,31.4
2023-04-04T15:02:06.953Z,31.4
2023-04-04T15:08:12.086Z,31.3
2023-04-04T15:14:18.055Z,31.3
2023-04-04T15:20:23.227Z,31.3
2023-04-04T15:26:28.424Z,31.1
2023-04-04T15:32:33.856Z,31.1
2023-04-04T15:38:39.164Z,31.2
2023-04-04T15:44:44.522Z,31.3
2023-04-04T15:50:50.060Z,31.3
2023-04-04T15:56:55.612Z,31.4
2023-04-04T16:03:01.675Z,31.4
2023-04-04T16:09:06.961Z,31.3
2023-04-04T16:15:12.343Z,31.4
2023-04-04T16:21:18.111Z,31.2
2023-04-04T16:27:23.488Z,31.4
2023-04-04T16:33:29.044Z,31.3
2023-04-04T16:39:34.848Z,31.4
2023-04-04T16:45:40.002Z,31.4
2023-04-04T16:51:45.362Z,31.3
2023-04-04T16:57:50.999Z,31.4
2023-04-04T17:03:56.937Z,31.4
2023-04-04T17:10:02.130Z,31.3
2023-04-04T17:16:07.656Z,31.4
2023-04-04T17:22:13.030Z,31.4
2023-04-04T17:28:18.404Z,31.4
2023-04-04T17:34:23.965Z,31.3
2023-04-04T17:40:29.592Z,31.3
2023-04-04T17:46:35.333Z,31.3
2023-04-04T17:52:40.886Z,31.3
2023-04-04T17:58:46.062Z,31.3
2023-04-04T18:04:51.205Z,31.1
2023-04-04T18:10:56.577Z,31.2
2023-04-04T18:17:01.954Z,31.3
2023-04-04T18:23:07.310Z,31.3
2023-04-04T18:29:12.879Z,31.3
2023-04-04T18:35:18.459Z,31.2
2023-04-04T18:41:23.843Z,31.2
2023-04-04T18:47:29.232Z,31.3
2023-04-04T18:53:35.993Z,31.2
2023-04-04T18:59:41.347Z,31.2
2023-04-04T19:05:46.572Z,31.3
2023-04-04T19:11:51.682Z,31.4
2023-04-04T19:17:56.694Z,31.4
2023-04-04T19:24:02.219Z,31.6
2023-04-04T19:30:07.594Z,31.4
2023-04-04T19:36:13.378Z,31.5
2023-04-04T19:42:18.599Z,31.5
2023-04-04T19:48:23.510Z,31.5
2023-04-04T19:54:28.894Z,31.5
2023-04-04T20:00:34.330Z,31.3
2023-04-04T20:06:39.215Z,31.5
2023-04-04T20:12:43.688Z,31.4
2023-04-04T20:18:49.015Z,31.4
2023-04-04T20:24:54.356Z,31.5
2023-04-04T20:30:59.686Z,31.5
2023-04-04T20:37:05.379Z,31.5
2023-04-04T20:43:11.010Z,31.5
2023-04-04T20:49:16.613Z,31.5
2023-04-04T20:55:22.106Z,31.4
2023-04-04T21:01:27.791Z,31.4
2023-04-04T21:07:34.081Z,31.5
2023-04-04T21:13:39.641Z,31.4
2023-04-04T21:19:45.873Z,31.5
2023-04-04T21:25:51.406Z,31.4
2023-04-04T21:31:57.240Z,31.5
2023-04-04T21:38:02.768Z,31.6
2023-04-04T21:44:08.750Z,31.6
2023-04-04T21:50:14.531Z,31.6
2023-04-04T21:56:19.645Z,31.6
2023-04-04T22:02:25.115Z,31.5
2023-04-04T22:08:30.683Z,31.5
2023-04-04T22:14:36.461Z,31.7
2023-04-04T22:20:42.856Z,31.6
2023-04-04T22:26:48.008Z,31.6
2023-04-04T22:32:53.828Z,31.7
2023-04-04T22:39:00.342Z,31.7
2023-04-04T22:45:06.315Z,31.7
2023-04-04T22:51:11.524Z,31.7
2023-04-04T22:57:17.252Z,31.7
2023-04-04T23:03:22.878Z,31.7
2023-04-04T23:09:28.597Z,31.8
2023-04-04T23:15:34.820Z,31.7
2023-04-04T23:21:40.601Z,31.8
2023-04-04T23:27:45.930Z,31.7
2023-04-04T23:33:51.718Z,31.8
2023-04-04T23:39:57.159Z,31.8
2023-04-04T23:46:02.724Z,31.5
2023-04-04T23:52:08.306Z,31.8
2023-04-04T23:58:14.247Z,31.7
